createdAt,value
2019-06-27T04:00:58.861Z,99.99
2019-06-27T04:01:59.035Z,99.99
2019-06-27T04:02:59.209Z,99.99
2019-06-27T04:03:59.391Z,99.99
2019-06-27T04:04:59.561Z,99.99
2019-06-27T04:05:59.748Z,99.99
2019-06-27T04:06:59.919Z,99.99
2019-06-27T04:08:00.093Z,99.99
2019-06-27T04:09:00.270Z,99.99
2019-06-27T04:10:00.447Z,99.99
2019-06-27T04:11:00.628Z,99.99
2019-06-27T04:12:00.797Z,99.99
2019-06-27T04:13:00.973Z,99.99
2019-06-27T04:14:01.175Z,99.99
2019-06-27T04:15:01.326Z,99.99
2019-06-27T04:16:01.508Z,99.99
2019-06-27T04:17:01.688Z,99.99
2019-06-27T04:18:01.853Z,99.99
2019-06-27T04:19:02.029Z,99.99
2019-06-27T04:20:02.206Z,99.99
2019-06-27T04:21:02.381Z,99.99
2019-06-27T04:22:02.562Z,99.99
2019-06-27T04:23:02.737Z,99.99
2019-06-27T04:24:02.925Z,99.99
2019-06-27T04:25:03.100Z,99.99
2019-06-27T04:26:03.285Z,99.99
2019-06-27T04:27:03.446Z,99.99
2019-06-27T04:28:03.624Z,99.99
2019-06-27T04:29:03.800Z,99.99
2019-06-27T04:30:03.976Z,99.99
2019-06-27T04:31:04.156Z,99.99
2019-06-27T04:32:04.327Z,99.99
2019-06-27T04:33:04.518Z,99.99
2019-06-27T04:34:04.678Z,99.99
2019-06-27T04:35:04.854Z,99.99
2019-06-27T04:36:05.033Z,99.99
2019-06-27T04:37:05.206Z,99.99
2019-06-27T04:38:05.383Z,99.99
2019-06-27T04:39:05.559Z,99.99
2019-06-27T04:40:05.735Z,99.99
2019-06-27T04:41:05.913Z,99.99
2019-06-27T04:42:06.094Z,99.99
2019-06-27T04:43:06.548Z,99.99
2019-06-27T04:44:06.444Z,99.99
2019-06-27T04:45:06.625Z,99.99
2019-06-27T04:46:06.800Z,99.99
2019-06-27T04:47:06.989Z,99.99
2019-06-27T04:48:07.162Z,99.99
2019-06-27T04:49:12.787Z,99.99
2019-06-27T04:50:07.523Z,99.99
2019-06-27T04:51:07.678Z,99.99
2019-06-27T04:52:07.852Z,99.99
2019-06-27T04:53:08.036Z,99.99
2019-06-27T04:54:08.205Z,99.99
2019-06-27T04:55:08.425Z,99.99
2019-06-27T04:56:08.576Z,99.99
2019-06-27T04:57:08.736Z,99.99
2019-06-27T04:58:08.913Z,99.99
2019-06-27T04:59:09.088Z,99.99
2019-06-27T05:00:09.268Z,99.99
2019-06-27T05:01:09.441Z,99.99
2019-06-27T05:02:09.619Z,99.99
2019-06-27T05:03:09.794Z,99.99
2019-06-27T05:04:09.978Z,99.99
2019-06-27T05:05:10.144Z,99.99
2019-06-27T05:06:10.340Z,99.99
2019-06-27T05:07:10.498Z,99.99
2019-06-27T05:08:14.185Z,99.99
2019-06-27T05:09:10.854Z,99.99
2019-06-27T05:10:11.026Z,99.99
2019-06-27T05:11:11.206Z,99.99
2019-06-27T05:12:11.393Z,99.99
2019-06-27T05:13:11.563Z,99.99
2019-06-27T05:14:11.737Z,99.99
2019-06-27T05:15:11.914Z,99.99
2019-06-27T05:16:12.089Z,99.99
2019-06-27T05:17:12.265Z,99.99
2019-06-27T05:18:12.440Z,99.99
2019-06-27T05:19:12.621Z,99.99
2019-06-27T05:20:12.804Z,99.99
2019-06-27T05:21:12.979Z,99.99
2019-06-27T05:22:13.145Z,99.99
2019-06-27T05:23:13.320Z,99.99
2019-06-27T05:24:13.500Z,99.99
2019-06-27T05:25:13.676Z,99.99
2019-06-27T05:26:13.877Z,99.99
2019-06-27T05:27:14.027Z,99.99
2019-06-27T05:28:14.203Z,99.99
2019-06-27T05:29:14.385Z,99.99
2019-06-27T05:30:14.556Z,99.99
2019-06-27T05:31:14.733Z,99.99
2019-06-27T05:32:14.909Z,99.99
2019-06-27T05:33:15.082Z,99.99
2019-06-27T05:34:15.258Z,99.99
2019-06-27T05:35:15.434Z,99.99
2019-06-27T05:36:15.614Z,99.99
2019-06-27T05:37:15.788Z,99.99
2019-06-27T05:38:15.962Z,99.99
2019-06-27T05:39:16.137Z,99.99
2019-06-27T05:40:16.312Z,99.99
2019-06-27T05:41:16.489Z,99.99
2019-06-27T05:42:16.665Z,99.99
2019-06-27T05:43:16.839Z,99.99
2019-06-27T05:44:17.014Z,99.99
2019-06-27T05:45:17.192Z,99.99
2019-06-27T05:46:17.373Z,99.99
2019-06-27T05:47:17.549Z,99.99
2019-06-27T05:48:17.727Z,99.99
2019-06-27T05:49:17.904Z,99.99
2019-06-27T05:50:18.077Z,99.99
2019-06-27T05:51:18.261Z,99.99
2019-06-27T05:52:18.432Z,99.99
2019-06-27T05:53:18.611Z,99.99
2019-06-27T05:54:18.787Z,99.83
2019-06-27T05:55:18.960Z,99.83
2019-06-27T05:56:19.136Z,99.64
2019-06-27T05:57:19.309Z,99.26
2019-06-27T05:58:19.486Z,99.64
2019-06-27T05:59:19.667Z,99.73
2019-06-27T06:00:28.525Z,99.21
2019-06-27T06:01:20.015Z,99.64
2019-06-27T06:02:20.187Z,99.83
2019-06-27T06:03:20.364Z,98.68
2019-06-27T06:04:23.941Z,98.77
2019-06-27T06:05:20.712Z,98.87
2019-06-27T06:06:20.913Z,97.52
2019-06-27T06:07:21.059Z,97.33
2019-06-27T06:08:21.241Z,98.68
2019-06-27T06:09:21.404Z,97.24
2019-06-27T06:10:21.580Z,95.89
2019-06-27T06:11:21.753Z,95.02
2019-06-27T06:12:21.928Z,94.92
2019-06-27T06:13:22.123Z,94.40
2019-06-27T06:14:22.279Z,94.49
2019-06-27T06:15:22.464Z,94.68
2019-06-27T06:16:22.638Z,94.45
2019-06-27T06:17:22.814Z,93.82
2019-06-27T06:18:22.993Z,93.05
2019-06-27T06:19:23.166Z,94.01
2019-06-27T06:20:23.344Z,93.15
2019-06-27T06:21:23.520Z,92.76
2019-06-27T06:22:23.690Z,93.43
2019-06-27T06:23:23.864Z,92.47
2019-06-27T06:24:24.043Z,92.57
2019-06-27T06:25:24.217Z,92.28
2019-06-27T06:26:24.395Z,92.18
2019-06-27T06:27:24.572Z,91.13
2019-06-27T06:28:24.746Z,90.93
2019-06-27T06:29:24.919Z,91.31
2019-06-27T06:30:25.095Z,90.93
2019-06-27T06:31:25.276Z,90.83
2019-06-27T06:32:25.453Z,90.55
2019-06-27T06:33:25.627Z,91.03
2019-06-27T06:34:25.799Z,89.78
2019-06-27T06:35:25.976Z,90.20
2019-06-27T06:36:26.156Z,90.11
2019-06-27T06:37:26.331Z,89.34
2019-06-27T06:38:26.508Z,89.24
2019-06-27T06:39:26.682Z,89.15
2019-06-27T06:40:26.857Z,89.53
2019-06-27T06:41:27.032Z,88.67
2019-06-27T06:42:27.206Z,87.41
2019-06-27T06:43:27.382Z,88.18
2019-06-27T06:44:27.559Z,86.69
2019-06-27T06:45:27.731Z,85.68
2019-06-27T06:46:27.912Z,86.30
2019-06-27T06:47:28.090Z,86.40
2019-06-27T06:48:28.264Z,85.49
2019-06-27T06:49:28.440Z,85.34
2019-06-27T06:50:28.622Z,85.72
2019-06-27T06:51:28.798Z,85.24
2019-06-27T06:52:28.971Z,85.05
2019-06-27T06:53:29.150Z,84.76
2019-06-27T06:54:29.324Z,83.99
2019-06-27T06:55:29.501Z,84.18
2019-06-27T06:56:29.678Z,83.99
2019-06-27T06:57:29.853Z,84.09
2019-06-27T06:58:30.027Z,83.80
2019-06-27T06:59:30.214Z,83.31
2019-06-27T07:00:30.405Z,82.78
2019-06-27T07:01:30.560Z,83.07
2019-06-27T07:02:30.735Z,82.20
2019-06-27T07:03:30.969Z,82.20
2019-06-27T07:04:31.087Z,81.33
2019-06-27T07:05:31.262Z,82.01
2019-06-27T07:06:31.439Z,80.46
2019-06-27T07:07:31.616Z,80.85
2019-06-27T07:08:31.793Z,80.46
2019-06-27T07:09:31.966Z,80.99
2019-06-27T07:10:32.142Z,80.46
2019-06-27T07:11:32.324Z,81.33
2019-06-27T07:12:32.498Z,81.52
2019-06-27T07:13:32.672Z,81.91
2019-06-27T07:14:32.848Z,81.33
2019-06-27T07:15:33.025Z,80.99
2019-06-27T07:16:33.206Z,81.27
2019-06-27T07:17:33.377Z,81.09
2019-06-27T07:18:33.556Z,80.41
2019-06-27T07:19:33.735Z,79.83
2019-06-27T07:20:33.911Z,79.44
2019-06-27T07:21:34.082Z,78.96
2019-06-27T07:22:34.256Z,80.22
2019-06-27T07:23:34.432Z,80.35
2019-06-27T07:24:34.608Z,78.81
2019-06-27T07:25:34.784Z,78.03
2019-06-27T07:26:34.964Z,79.00
2019-06-27T07:27:35.147Z,78.71
2019-06-27T07:28:35.318Z,78.61
2019-06-27T07:29:35.489Z,77.75
2019-06-27T07:30:35.715Z,77.46
2019-06-27T07:31:35.848Z,77.55
2019-06-27T07:32:36.013Z,77.26
2019-06-27T07:33:36.191Z,77.55
2019-06-27T07:34:36.369Z,76.68
2019-06-27T07:35:36.541Z,75.82
2019-06-27T07:36:36.719Z,75.67
2019-06-27T07:37:36.894Z,76.53
2019-06-27T07:38:37.077Z,77.40
2019-06-27T07:39:37.250Z,76.53
2019-06-27T07:40:37.426Z,76.24
2019-06-27T07:41:37.602Z,76.15
2019-06-27T07:42:37.777Z,76.53
2019-06-27T07:43:37.957Z,76.92
2019-06-27T07:44:38.134Z,75.37
2019-06-27T07:45:38.309Z,75.57
2019-06-27T07:46:38.484Z,75.51
2019-06-27T07:47:38.667Z,76.47
2019-06-27T07:48:38.865Z,76.09
2019-06-27T07:49:39.014Z,76.47
2019-06-27T07:50:39.192Z,74.64
2019-06-27T07:51:39.372Z,73.58
2019-06-27T07:52:39.544Z,73.67
2019-06-27T07:53:39.724Z,74.35
2019-06-27T07:54:39.900Z,74.29
2019-06-27T07:55:40.090Z,73.09
2019-06-27T07:56:40.252Z,74.06
2019-06-27T07:57:40.436Z,75.89
2019-06-27T07:58:40.607Z,76.28
2019-06-27T07:59:40.782Z,74.73
2019-06-27T08:00:40.960Z,74.35
2019-06-27T08:01:41.136Z,73.48
2019-06-27T08:02:41.310Z,73.90
2019-06-27T08:03:41.484Z,73.13
2019-06-27T08:04:41.663Z,72.36
2019-06-27T08:05:41.839Z,72.06
2019-06-27T08:06:42.017Z,72.06
2019-06-27T08:07:42.195Z,71.52
2019-06-27T08:08:42.374Z,70.94
2019-06-27T08:09:42.548Z,71.42
2019-06-27T08:10:42.724Z,70.94
2019-06-27T08:11:42.906Z,69.78
2019-06-27T08:12:43.080Z,69.98
2019-06-27T08:13:43.262Z,70.94
2019-06-27T08:14:43.440Z,70.46
2019-06-27T08:15:43.613Z,71.23
2019-06-27T08:16:43.788Z,71.04
2019-06-27T08:17:43.966Z,71.14
2019-06-27T08:18:44.145Z,70.36
2019-06-27T08:19:44.319Z,69.01
2019-06-27T08:20:44.497Z,69.33
2019-06-27T08:21:44.673Z,68.27
2019-06-27T08:22:44.851Z,68.66
2019-06-27T08:23:45.027Z,68.01
2019-06-27T08:24:45.201Z,68.49
2019-06-27T08:28:17.138Z,65.95
2019-06-27T08:29:17.312Z,66.14
2019-06-27T08:30:17.532Z,65.89
2019-06-27T08:31:17.709Z,64.27
2019-06-27T08:32:17.875Z,63.13
2019-06-27T08:33:18.085Z,61.52
2019-06-27T08:34:18.228Z,61.25
2019-06-27T08:35:18.402Z,60.48
2019-06-27T08:36:18.583Z,59.80
2019-06-27T08:37:18.755Z,58.86
2019-06-27T08:38:18.933Z,58.28
2019-06-27T08:39:19.109Z,59.08
2019-06-27T08:40:19.285Z,58.01
2019-06-27T08:41:19.460Z,58.33
2019-06-27T08:42:19.637Z,58.59
2019-06-27T08:43:19.814Z,57.65
2019-06-27T08:44:20.005Z,57.43
2019-06-27T08:45:20.159Z,56.85
2019-06-27T08:46:20.341Z,58.76
2019-06-27T08:47:20.515Z,59.15
2019-06-27T08:48:20.692Z,58.83
2019-06-27T08:49:20.885Z,59.61
2019-06-27T08:50:21.043Z,60.64
2019-06-27T08:51:21.221Z,60.64
2019-06-27T08:52:21.401Z,61.52
2019-06-27T08:53:21.586Z,60.42
2019-06-27T08:54:21.747Z,60.68
2019-06-27T08:55:21.923Z,60.97
2019-06-27T08:56:22.098Z,62.10
2019-06-27T08:57:22.273Z,62.30
2019-06-27T08:58:22.455Z,63.37
2019-06-27T08:59:22.625Z,63.14
2019-06-27T09:00:22.801Z,63.85
2019-06-27T09:01:22.978Z,62.30
2019-06-27T09:02:23.170Z,61.33
2019-06-27T09:03:23.341Z,61.62
2019-06-27T09:04:23.517Z,61.55
2019-06-27T09:05:23.692Z,61.07
2019-06-27T09:06:23.866Z,60.58
2019-06-27T09:07:24.053Z,62.04
2019-06-27T09:08:24.222Z,60.49
2019-06-27T09:09:24.399Z,60.88
2019-06-27T09:10:24.574Z,61.55
2019-06-27T09:11:24.754Z,60.91
2019-06-27T09:12:24.928Z,60.42
2019-06-27T09:13:25.102Z,60.58
2019-06-27T09:14:25.275Z,60.42
2019-06-27T09:15:25.462Z,59.64
2019-06-27T09:16:25.633Z,57.80
2019-06-27T09:17:25.810Z,57.32
2019-06-27T09:18:25.986Z,58.31
2019-06-27T09:19:26.158Z,57.80
2019-06-27T09:20:26.335Z,57.32
2019-06-27T09:21:26.512Z,57.42
2019-06-27T09:22:26.697Z,58.61
2019-06-27T09:23:26.860Z,57.83
2019-06-27T09:24:27.035Z,56.37
2019-06-27T09:25:27.215Z,58.41
2019-06-27T09:26:27.385Z,58.22
2019-06-27T09:27:27.561Z,57.83
2019-06-27T09:28:27.741Z,56.86
2019-06-27T09:29:27.918Z,58.90
2019-06-27T09:30:28.094Z,58.03
2019-06-27T09:31:28.271Z,58.22
2019-06-27T09:32:28.449Z,58.90
2019-06-27T09:33:28.624Z,56.67
2019-06-27T09:34:28.798Z,59.09
2019-06-27T09:35:28.973Z,57.15
2019-06-27T09:36:29.148Z,55.99
2019-06-27T09:37:29.324Z,55.63
2019-06-27T09:38:29.506Z,56.21
2019-06-27T09:39:29.682Z,56.40
2019-06-27T09:40:29.865Z,55.33
2019-06-27T09:41:30.029Z,55.17
2019-06-27T09:42:30.204Z,54.39
2019-06-27T09:43:30.381Z,54.10
2019-06-27T09:44:30.560Z,53.61
2019-06-27T09:45:30.739Z,53.91
2019-06-27T09:46:30.915Z,54.68
2019-06-27T09:47:31.090Z,53.91
2019-06-27T09:48:31.269Z,53.13
2019-06-27T09:49:31.447Z,53.13
2019-06-27T09:50:31.621Z,52.19
2019-06-27T09:51:31.800Z,51.87
2019-06-27T09:52:31.973Z,52.64
2019-06-27T09:53:32.150Z,52.64
2019-06-27T09:54:32.328Z,50.89
2019-06-27T09:55:32.504Z,50.73
2019-06-27T09:56:32.704Z,51.77
2019-06-27T09:57:32.857Z,52.45
2019-06-27T09:58:33.041Z,51.28
2019-06-27T09:59:33.211Z,52.84
2019-06-27T10:00:33.389Z,51.67
2019-06-27T10:01:33.561Z,51.38
2019-06-27T10:02:41.378Z,51.84
2019-06-27T10:03:33.921Z,53.13
2019-06-27T10:04:34.097Z,53.61
2019-06-27T10:05:34.272Z,51.77
2019-06-27T10:06:34.447Z,51.31
2019-06-27T10:07:34.626Z,51.82
2019-06-27T10:08:34.802Z,49.87
2019-06-27T10:09:34.976Z,49.10
2019-06-27T10:10:35.152Z,48.13
2019-06-27T10:11:35.327Z,49.51
2019-06-27T10:12:42.123Z,47.86
2019-06-27T10:13:35.679Z,49.61
2019-06-27T10:14:35.854Z,49.32
2019-06-27T10:15:36.031Z,45.52
2019-06-27T10:16:36.207Z,45.06
2019-06-27T10:17:36.382Z,45.54
2019-06-27T10:18:36.559Z,46.93
2019-06-27T10:19:36.737Z,43.84
2019-06-27T10:20:36.911Z,45.71
2019-06-27T10:21:37.093Z,44.24
2019-06-27T10:22:37.271Z,45.54
2019-06-27T10:23:37.442Z,43.32
2019-06-27T10:24:37.617Z,42.36
2019-06-27T10:25:38.337Z,40.50
2019-06-27T10:26:37.968Z,40.33
2019-06-27T10:27:38.195Z,39.55
2019-06-27T10:28:38.339Z,38.59
2019-06-27T10:29:38.573Z,39.28
2019-06-27T10:30:38.706Z,40.66
2019-06-27T10:31:38.915Z,41.17
2019-06-27T10:32:39.143Z,40.48
2019-06-27T10:33:39.283Z,38.35
2019-06-27T10:34:39.469Z,37.85
2019-06-27T10:35:39.570Z,37.87
2019-06-27T10:36:39.753Z,37.35
2019-06-27T10:37:39.925Z,38.43
2019-06-27T10:38:40.104Z,36.98
2019-06-27T10:39:40.287Z,36.32
2019-06-27T10:40:40.463Z,36.61
2019-06-27T10:41:40.646Z,36.90
2019-06-27T10:42:40.838Z,37.39
2019-06-27T10:43:41.000Z,36.90
2019-06-27T10:44:41.178Z,35.93
2019-06-27T10:45:41.358Z,35.55
2019-06-27T10:46:41.536Z,34.28
2019-06-27T10:47:41.712Z,33.89
2019-06-27T10:48:41.891Z,34.38
2019-06-27T10:49:42.075Z,35.55
2019-06-27T10:50:42.248Z,34.59
2019-06-27T10:51:42.439Z,35.47
2019-06-27T10:52:42.607Z,36.86
2019-06-27T10:53:42.803Z,36.08
2019-06-27T10:54:42.968Z,31.84
2019-06-27T10:55:43.149Z,35.49
2019-06-27T10:56:43.335Z,33.72
2019-06-27T10:57:43.506Z,34.11
2019-06-27T10:58:43.687Z,34.01
2019-06-27T10:59:43.868Z,32.06
2019-06-27T11:00:44.048Z,31.67
2019-06-27T11:01:44.231Z,30.70
2019-06-27T11:02:44.412Z,31.48
2019-06-27T11:03:44.592Z,31.68
2019-06-27T11:04:44.775Z,32.27
2019-06-27T11:05:44.948Z,30.40
2019-06-27T11:06:45.150Z,30.99
2019-06-27T11:07:45.343Z,30.60
2019-06-27T11:08:45.531Z,30.90
2019-06-27T11:09:45.710Z,31.48
2019-06-27T11:10:45.901Z,31.58
2019-06-27T11:11:46.064Z,29.53
2019-06-27T11:12:46.245Z,29.05
2019-06-27T11:13:58.357Z,29.14
2019-06-27T11:14:58.588Z,28.64
2019-06-27T11:15:49.248Z,29.93
2019-06-27T11:16:46.980Z,30.91
2019-06-27T11:17:47.152Z,30.91
2019-06-27T11:18:47.337Z,33.28
2019-06-27T11:19:52.459Z,30.94
2019-06-27T11:20:47.703Z,32.31
2019-06-27T11:21:47.891Z,30.73
2019-06-27T11:22:48.079Z,28.77
2019-06-27T11:23:48.261Z,30.62
2019-06-27T11:24:48.446Z,29.94
2019-06-27T11:25:48.631Z,28.86
2019-06-27T11:26:48.809Z,29.17
2019-06-27T11:27:48.997Z,27.70
2019-06-27T11:28:49.180Z,27.81
2019-06-27T11:29:49.366Z,28.78
2019-06-27T11:30:49.551Z,28.39
2019-06-27T11:31:49.723Z,27.70
2019-06-27T11:32:49.908Z,29.47
2019-06-27T11:33:50.090Z,31.05
2019-06-27T11:34:50.274Z,28.39
2019-06-27T11:35:50.455Z,27.32
2019-06-27T11:36:50.637Z,27.82
2019-06-27T11:37:50.824Z,28.51
2019-06-27T11:38:51.013Z,27.72
2019-06-27T11:39:51.186Z,28.81
2019-06-27T11:40:51.495Z,28.41
2019-06-27T11:41:51.585Z,30.38
2019-06-27T11:42:51.751Z,27.23
2019-06-27T11:43:51.934Z,28.81
2019-06-27T11:44:52.117Z,28.51
2019-06-27T11:45:52.303Z,28.91
2019-06-27T11:46:52.486Z,27.53
2019-06-27T11:47:52.672Z,27.64
2019-06-27T11:48:52.862Z,26.15
2019-06-27T11:49:53.041Z,26.93
2019-06-27T11:50:53.226Z,26.64
2019-06-27T11:51:53.417Z,27.53
2019-06-27T11:52:53.589Z,28.70
2019-06-27T11:53:53.774Z,27.72
2019-06-27T11:54:53.957Z,28.02
2019-06-27T11:55:54.142Z,26.53
2019-06-27T11:56:54.329Z,26.43
2019-06-27T11:57:56.747Z,29.19
2019-06-27T11:58:54.698Z,28.12
2019-06-27T11:59:54.892Z,28.61
2019-06-27T12:00:55.071Z,27.23
2019-06-27T12:01:55.254Z,27.23
2019-06-27T12:02:55.438Z,28.70
2019-06-27T12:03:55.619Z,27.44
2019-06-27T12:04:55.801Z,27.84
2019-06-27T12:05:55.985Z,27.15
2019-06-27T12:06:56.169Z,28.92
2019-06-27T12:07:56.353Z,27.74
2019-06-27T12:08:56.536Z,27.15
2019-06-27T12:09:56.717Z,28.33
2019-06-27T12:10:56.916Z,28.83
2019-06-27T12:11:57.092Z,27.44
2019-06-27T12:12:57.276Z,25.49
2019-06-27T12:13:57.506Z,25.10
2019-06-27T12:14:57.651Z,24.51
2019-06-27T12:15:57.833Z,24.52
2019-06-27T12:16:58.015Z,24.80
2019-06-27T12:17:58.203Z,23.73
2019-06-27T12:18:58.374Z,24.51
2019-06-27T12:19:58.562Z,24.22
2019-06-27T12:20:58.746Z,23.93
2019-06-27T12:21:58.931Z,24.41
2019-06-27T12:22:59.121Z,23.83
2019-06-27T12:23:59.302Z,23.62
2019-06-27T12:24:59.485Z,24.21
2019-06-27T12:25:59.670Z,23.82
2019-06-27T12:26:59.870Z,24.30
2019-06-27T12:28:00.042Z,23.91
2019-06-27T12:29:00.228Z,24.98
2019-06-27T12:30:00.494Z,25.20
2019-06-27T12:31:10.328Z,23.03
2019-06-27T12:32:00.780Z,23.82
2019-06-27T12:33:00.979Z,24.30
2019-06-27T12:34:07.055Z,25.31
2019-06-27T12:35:01.357Z,24.70
2019-06-27T12:36:01.539Z,23.93
2019-06-27T12:37:01.726Z,24.22
2019-06-27T12:38:01.911Z,24.71
2019-06-27T12:39:02.092Z,24.81
2019-06-27T12:40:02.486Z,25.99
2019-06-27T12:41:02.484Z,25.89
2019-06-27T12:42:02.657Z,25.20
2019-06-27T12:43:02.855Z,25.31
2019-06-27T12:44:03.029Z,25.99
2019-06-27T12:45:03.211Z,23.82
2019-06-27T12:46:03.907Z,24.51
2019-06-27T12:47:03.580Z,26.48
2019-06-27T12:48:07.074Z,26.57
2019-06-27T12:49:03.948Z,25.49
2019-06-27T12:50:04.131Z,26.78
2019-06-27T12:51:04.323Z,26.40
2019-06-27T12:52:04.563Z,26.90
2019-06-27T12:53:04.691Z,25.73
2019-06-27T12:54:04.894Z,25.83
2019-06-27T12:55:05.066Z,26.71
2019-06-27T12:56:05.250Z,25.82
2019-06-27T12:57:05.433Z,26.51
2019-06-27T12:58:05.619Z,26.30
2019-06-27T12:59:05.807Z,26.50
2019-06-27T13:00:08.701Z,27.78
2019-06-27T13:01:06.180Z,26.59
2019-06-27T13:02:06.368Z,26.70
2019-06-27T13:03:06.557Z,27.68
2019-06-27T13:04:22.419Z,25.71
2019-06-27T13:05:06.928Z,26.48
2019-06-27T13:06:07.113Z,27.27
2019-06-27T13:07:07.306Z,27.58
2019-06-27T13:08:07.477Z,26.98
2019-06-27T13:09:07.665Z,26.58
2019-06-27T13:10:07.846Z,25.99
2019-06-27T13:11:08.031Z,27.76
2019-06-27T13:12:08.214Z,28.06
2019-06-27T13:13:08.400Z,28.96
2019-06-27T13:14:08.580Z,28.47
2019-06-27T13:15:08.764Z,26.40
2019-06-27T13:16:08.954Z,27.28
2019-06-27T13:17:09.137Z,27.48
2019-06-27T13:18:09.340Z,26.89
2019-06-27T13:19:09.524Z,26.59
2019-06-27T13:20:09.710Z,26.79
2019-06-27T13:21:09.906Z,26.50
2019-06-27T13:22:10.071Z,25.12
2019-06-27T13:23:10.257Z,25.52
2019-06-27T13:24:10.443Z,25.82
2019-06-27T13:25:10.650Z,26.71
2019-06-27T13:26:10.812Z,27.81
2019-06-27T13:27:11.121Z,26.81
2019-06-27T13:28:11.188Z,27.81
2019-06-27T13:29:11.367Z,27.31
2019-06-27T13:30:11.607Z,26.82
2019-06-27T13:31:11.766Z,27.61
2019-06-27T13:32:11.929Z,27.59
2019-06-27T13:33:12.115Z,27.59
2019-06-27T13:34:12.301Z,26.30
2019-06-27T13:35:12.491Z,27.17
2019-06-27T13:36:12.673Z,28.36
2019-06-27T13:37:12.859Z,28.65
2019-06-27T13:38:13.047Z,28.27
2019-06-27T13:39:13.234Z,27.69
2019-06-27T13:40:13.414Z,27.59
2019-06-27T13:41:13.603Z,26.90
2019-06-27T13:42:13.783Z,26.53
2019-06-27T13:43:13.968Z,26.81
2019-06-27T13:44:14.153Z,27.51
2019-06-27T13:45:14.338Z,26.71
2019-06-27T13:46:14.523Z,27.91
2019-06-27T13:47:14.708Z,28.00
2019-06-27T13:48:14.897Z,28.40
2019-06-27T13:49:15.081Z,28.00
2019-06-27T13:50:15.265Z,27.62
2019-06-27T13:51:15.456Z,27.91
2019-06-27T13:52:15.640Z,28.40
2019-06-27T13:53:15.826Z,28.89
2019-06-27T13:54:16.011Z,28.89
2019-06-27T13:55:16.199Z,28.10
2019-06-27T13:56:16.387Z,28.78
2019-06-27T13:57:16.570Z,29.37
2019-06-27T13:58:16.756Z,29.96
2019-06-27T13:59:16.949Z,29.28
2019-06-27T14:00:17.126Z,28.48
2019-06-27T14:01:17.312Z,28.78
2019-06-27T14:02:17.495Z,27.79
2019-06-27T14:03:17.679Z,29.14
2019-06-27T14:04:17.862Z,28.86
2019-06-27T14:05:18.048Z,29.06
2019-06-27T14:06:18.233Z,29.55
2019-06-27T14:07:18.419Z,28.86
2019-06-27T14:08:18.604Z,28.78
2019-06-27T14:09:23.501Z,28.86
2019-06-27T14:10:18.977Z,29.25
2019-06-27T14:11:19.165Z,29.65
2019-06-27T14:12:19.347Z,27.59
2019-06-27T14:13:19.535Z,28.08
2019-06-27T14:14:19.747Z,28.17
2019-06-27T14:15:19.899Z,28.66
2019-06-27T14:16:20.086Z,28.96
2019-06-27T14:17:20.277Z,29.55
2019-06-27T14:18:20.447Z,28.86
2019-06-27T14:19:20.636Z,29.07
2019-06-27T14:20:20.826Z,30.24
2019-06-27T14:21:21.001Z,30.73
2019-06-27T14:22:32.800Z,30.15
2019-06-27T14:23:21.385Z,30.13
2019-06-27T14:24:21.559Z,30.22
2019-06-27T14:25:21.739Z,31.80
2019-06-27T14:26:21.924Z,28.96
2019-06-27T14:27:22.150Z,31.90
2019-06-27T14:28:22.297Z,30.03
2019-06-27T14:29:22.473Z,29.92
2019-06-27T14:30:22.661Z,30.80
2019-06-27T14:31:22.846Z,31.29
2019-06-27T14:32:23.032Z,31.98
2019-06-27T14:33:23.224Z,31.67
2019-06-27T14:34:23.405Z,31.85
2019-06-27T14:35:23.590Z,31.36
2019-06-27T14:36:23.779Z,31.46
2019-06-27T14:37:23.960Z,31.36
2019-06-27T14:38:24.149Z,30.58
2019-06-27T14:39:24.322Z,31.84
2019-06-27T14:40:24.511Z,32.04
2019-06-27T14:41:24.701Z,32.12
2019-06-27T14:42:24.887Z,32.31
2019-06-27T14:43:25.072Z,33.89
2019-06-27T14:44:25.258Z,33.59
2019-06-27T14:45:25.441Z,33.70
2019-06-27T14:46:25.625Z,33.49
2019-06-27T14:47:25.810Z,33.80
2019-06-27T14:48:25.997Z,33.61
2019-06-27T14:49:26.197Z,33.53
2019-06-27T14:50:26.361Z,32.34
2019-06-27T14:51:26.549Z,32.45
2019-06-27T14:52:26.787Z,32.15
2019-06-27T14:53:26.926Z,31.66
2019-06-27T14:54:27.118Z,31.94
2019-06-27T14:55:27.292Z,32.24
2019-06-27T14:56:27.477Z,32.15
2019-06-27T14:57:27.665Z,31.16
2019-06-27T14:58:27.846Z,30.58
2019-06-27T14:59:28.032Z,32.15
2019-06-27T15:00:28.217Z,32.76
2019-06-27T15:01:28.402Z,32.64
2019-06-27T15:02:28.584Z,32.62
2019-06-27T15:03:32.521Z,32.12
2019-06-27T15:04:28.952Z,32.14
2019-06-27T15:05:33.069Z,32.12
2019-06-27T15:06:29.323Z,32.50
2019-06-27T15:07:29.507Z,33.58
2019-06-27T15:08:29.689Z,33.38
2019-06-27T15:09:29.874Z,33.67
2019-06-27T15:10:30.057Z,33.97
2019-06-27T15:11:30.249Z,33.58
2019-06-27T15:12:30.428Z,33.79
2019-06-27T15:13:30.612Z,32.79
2019-06-27T15:14:30.798Z,32.28
2019-06-27T15:15:30.983Z,33.38
2019-06-27T15:16:31.168Z,31.70
2019-06-27T15:17:31.359Z,32.68
2019-06-27T15:18:31.539Z,32.48
2019-06-27T15:19:31.725Z,32.30
2019-06-27T15:20:31.907Z,32.68
2019-06-27T15:21:32.099Z,32.57
2019-06-27T15:22:32.292Z,32.78
2019-06-27T15:23:32.458Z,33.65
2019-06-27T15:24:32.642Z,33.46
2019-06-27T15:25:32.822Z,32.57
2019-06-27T15:26:33.020Z,32.48
2019-06-27T15:27:33.197Z,32.68
2019-06-27T15:28:34.374Z,32.68
2019-06-27T15:29:33.572Z,32.38
2019-06-27T15:30:33.750Z,32.68
2019-06-27T15:31:33.933Z,32.66
2019-06-27T15:32:34.118Z,33.34
2019-06-27T15:33:34.305Z,33.54
2019-06-27T15:34:34.487Z,33.64
2019-06-27T15:35:50.889Z,33.92
2019-06-27T15:36:34.856Z,34.39
2019-06-27T15:37:35.040Z,34.00
2019-06-27T15:38:35.231Z,35.29
2019-06-27T15:39:35.410Z,35.39
2019-06-27T15:40:35.593Z,34.59
2019-06-27T15:41:35.784Z,35.35
2019-06-27T15:42:35.957Z,35.45
2019-06-27T15:43:36.142Z,34.67
2019-06-27T15:44:36.320Z,34.96
2019-06-27T15:45:36.508Z,35.45
2019-06-27T15:46:36.694Z,35.55
2019-06-27T15:47:36.874Z,36.41
2019-06-27T15:48:37.056Z,36.41
2019-06-27T15:49:37.243Z,36.22
2019-06-27T15:50:37.422Z,36.32
2019-06-27T15:51:37.603Z,36.71
2019-06-27T15:52:37.791Z,37.87
2019-06-27T15:53:38.001Z,36.88
2019-06-27T15:54:38.151Z,37.10
2019-06-27T15:55:38.333Z,37.29
2019-06-27T15:56:38.522Z,37.08
2019-06-27T15:57:38.696Z,37.18
2019-06-27T15:58:38.879Z,38.16
2019-06-27T15:59:39.065Z,37.87
2019-06-27T16:00:39.628Z,37.37
2019-06-27T16:01:39.425Z,37.67
2019-06-27T16:02:39.673Z,38.24
2019-06-27T16:03:39.788Z,37.08
2019-06-27T16:04:39.972Z,37.37
2019-06-27T16:05:40.161Z,38.16
2019-06-27T16:06:40.353Z,38.34
2019-06-27T16:07:40.548Z,38.34
2019-06-27T16:08:40.710Z,37.95
2019-06-27T16:09:40.896Z,38.14
2019-06-27T16:10:41.072Z,39.02
2019-06-27T16:11:41.254Z,39.39
2019-06-27T16:12:41.439Z,37.83
2019-06-27T16:13:41.629Z,38.81
2019-06-27T16:14:41.805Z,38.59
2019-06-27T16:15:41.987Z,38.61
2019-06-27T16:16:42.170Z,38.61
2019-06-27T16:17:42.352Z,38.43
2019-06-27T16:18:42.533Z,38.24
2019-06-27T16:19:42.717Z,38.73
2019-06-27T16:20:42.904Z,38.92
2019-06-27T16:21:43.084Z,38.92
2019-06-27T16:22:43.265Z,39.70
2019-06-27T16:23:43.446Z,38.34
2019-06-27T16:24:43.635Z,38.53
2019-06-27T16:25:43.814Z,38.24
2019-06-27T16:26:43.996Z,38.34
2019-06-27T16:27:44.176Z,38.34
2019-06-27T16:28:44.359Z,38.90
2019-06-27T16:29:44.541Z,39.29
2019-06-27T16:30:44.722Z,39.57
2019-06-27T16:31:44.905Z,40.33
2019-06-27T16:32:45.089Z,39.84
2019-06-27T16:33:45.270Z,41.02
2019-06-27T16:34:45.452Z,39.45
2019-06-27T16:35:45.636Z,39.84
2019-06-27T16:36:45.815Z,40.16
2019-06-27T16:37:46.014Z,40.23
2019-06-27T16:38:46.192Z,39.94
2019-06-27T16:39:46.394Z,40.53
2019-06-27T16:40:46.576Z,39.36
2019-06-27T16:41:46.757Z,39.18
2019-06-27T16:42:46.938Z,39.37
2019-06-27T16:43:47.118Z,38.69
2019-06-27T16:44:47.304Z,40.23
2019-06-27T16:45:47.494Z,39.94
2019-06-27T16:46:47.669Z,39.82
2019-06-27T16:47:47.852Z,40.31
2019-06-27T16:48:48.031Z,39.90
2019-06-27T16:49:48.210Z,40.39
2019-06-27T16:50:48.398Z,41.36
2019-06-27T16:51:48.583Z,41.36
2019-06-27T16:52:48.761Z,41.22
2019-06-27T16:53:48.942Z,43.25
2019-06-27T16:54:49.125Z,43.62
2019-06-27T16:55:49.307Z,44.59
2019-06-27T16:56:49.487Z,44.28
2019-06-27T16:57:49.670Z,43.60